Time;durP1;ratioP1;P1;durP2;ratioP2;P2;SDS_P1;SDS_P2;PMS_P1;PMS_P2;Temp;Humidity;BMP_temperature;BMP_pressure;BME280_temperature;BME280_humidity;BME280_pressure;Samples;Min_cycle;Max_cycle;Signal;HPM_P1;HPM_P2
2023/06/01 00:00:17;;;;;;;;;;;;;;;23.38;62.59;98687.81;2088023;28;19952;-48
2023/06/01 00:01:21;;;;;;;;;;;;;;;23.39;62.25;98685.91;2089607;28;19920;-49
2023/06/01 00:02:22;;;;;;;;;;;;;;;23.39;62.57;98684.03;2088735;28;20358;-49
2023/06/01 00:03:23;;;;;;;;;;;;;;;23.39;62.88;98681.31;2087825;28;19970;-47
2023/06/01 00:04:24;;;;;;;;;;;;;;;23.39;62.64;98686.72;2089336;28;19928;-49
2023/06/01 00:05:24;;;;;;;;;;;;;;;23.39;62.33;98680.50;2087555;28;19997;-49
2023/06/01 00:06:28;;;;;;;;;;;;;;;23.39;62.62;98684.03;2089907;28;20371;-47
2023/06/01 00:07:29;;;;;;;;;;;;;;;23.36;63.12;98681.78;2088492;28;20286;-49
2023/06/01 00:08:31;;;;;;;;;;;;;;;23.36;62.83;98675.56;2088039;28;20521;-49
2023/06/01 00:09:31;;;;;;;;;;;;;;;23.37;62.59;98680.75;2088804;28;19921;-50
2023/06/01 00:10:33;;;;;;;;;;;;;;;23.37;63.43;98680.75;2088998;28;19982;-49
2023/06/01 00:11:33;;;;;;;;;;;;;;;23.37;62.92;98675.34;2087973;28;19999;-48
2023/06/01 00:12:35;;;;;;;;;;;;;;;23.37;62.82;98678.03;2092587;28;19927;-50
2023/06/01 00:13:35;;;;;;;;;;;;;;;23.38;63.31;98678.88;2085357;28;19931;-52
2023/06/01 00:14:37;;;;;;;;;;;;;;;23.36;62.59;98675.56;2092144;28;20535;-48
2023/06/01 00:15:37;;;;;;;;;;;;;;;23.38;62.66;98674.28;2088737;28;20989;-54
2023/06/01 00:16:40;;;;;;;;;;;;;;;23.37;62.98;98675.34;2088858;28;19929;-51
2023/06/01 00:17:40;;;;;;;;;;;;;;;23.38;62.73;98668.84;2089772;28;19924;-45
2023/06/01 00:18:42;;;;;;;;;;;;;;;23.39;62.83;98673.19;2089543;28;19977;-51
2023/06/01 00:19:44;;;;;;;;;;;;;;;23.39;62.85;98675.09;2088557;28;20057;-45
2023/06/01 00:20:46;;;;;;;;;;;;;;;23.38;63.27;98668.84;2088842;28;20641;-50
2023/06/01 00:21:46;;;;;;;;;;;;;;;23.39;62.83;98669.69;2089925;28;19962;-49
2023/06/01 00:22:48;;;;;;;;;;;;;;;23.39;62.97;98666.97;2088784;28;20725;-49
2023/06/01 00:23:49;;;;;;;;;;;;;;;23.39;62.68;98670.50;2088433;28;20011;-46
2023/06/01 00:24:50;;;;;;;;;;;;;;;23.39;63.03;98672.38;2087896;28;19928;-49
2023/06/01 00:25:51;;;;;;;;;;;;;;;23.38;62.96;98668.84;2088754;28;19973;-52
2023/06/01 00:26:52;;;;;;;;;;;;;;;23.38;62.71;98663.44;2087110;28;19982;-50
2023/06/01 00:27:53;;;;;;;;;;;;;;;23.38;63.35;98668.84;2086716;28;19921;-46
2023/06/01 00:28:54;;;;;;;;;;;;;;;23.39;62.99;98666.97;2088526;28;19925;-53
2023/06/01 00:29:55;;;;;;;;;;;;;;;23.38;62.97;98671.56;2087828;28;19928;-50
2023/06/01 00:30:56;;;;;;;;;;;;;;;23.39;63.26;98670.50;2086820;28;19924;-47
2023/06/01 00:31:58;;;;;;;;;;;;;;;23.39;63.10;98667.78;2086945;28;19974;-52
2023/06/01 00:33:00;;;;;;;;;;;;;;;23.38;63.63;98660.72;2090382;28;20007;-46
2023/06/01 00:34:00;;;;;;;;;;;;;;;23.38;64.69;98658.03;2086575;28;20034;-52
2023/06/01 00:35:01;;;;;;;;;;;;;;;23.38;63.31;98666.16;2090816;28;19928;-51
2023/06/01 00:36:02;;;;;;;;;;;;;;;23.39;63.12;98661.56;2087855;28;19951;-51
2023/06/01 00:37:04;;;;;;;;;;;;;;;23.39;63.46;98664.25;2085147;28;19951;-48
2023/06/01 00:38:06;;;;;;;;;;;;;;;23.37;63.08;98656.41;2087581;28;19928;-48
2023/06/01 00:39:08;;;;;;;;;;;;;;;23.39;63.36;98664.25;2085928;28;20480;-49
2023/06/01 00:40:09;;;;;;;;;;;;;;;23.39;63.25;98659.66;2086279;28;20082;-49
2023/06/01 00:41:10;;;;;;;;;;;;;;;23.39;63.06;98656.16;2086977;28;19923;-46
2023/06/01 00:42:11;;;;;;;;;;;;;;;23.38;63.71;98658.03;2086019;28;19928;-50
2023/06/01 00:43:12;;;;;;;;;;;;;;;23.39;62.94;98656.97;2086873;28;20302;-48
2023/06/01 00:44:14;;;;;;;;;;;;;;;23.39;63.00;98659.66;2085442;28;20354;-47
2023/06/01 00:45:15;;;;;;;;;;;;;;;23.38;63.20;98659.91;2084453;28;19955;-52
2023/06/01 00:46:16;;;;;;;;;;;;;;;23.39;63.28;98659.66;2085998;28;21085;-50
2023/06/01 00:47:18;;;;;;;;;;;;;;;23.39;63.35;98662.38;2083398;28;19977;-47
2023/06/01 00:48:20;;;;;;;;;;;;;;;23.39;63.23;98658.84;2085937;28;19967;-49
2023/06/01 00:49:21;;;;;;;;;;;;;;;23.38;63.22;98660.72;2087581;28;20581;-48
2023/06/01 00:50:23;;;;;;;;;;;;;;;23.38;63.70;98658.03;2083722;28;19967;-49
2023/06/01 00:51:24;;;;;;;;;;;;;;;23.37;64.02;98656.41;2085262;28;19956;-48
2023/06/01 00:52:25;;;;;;;;;;;;;;;23.37;63.96;98656.41;2083890;28;20647;-47
2023/06/01 00:53:26;;;;;;;;;;;;;;;23.36;64.06;98653.91;2085476;28;20015;-46
2023/06/01 00:54:27;;;;;;;;;;;;;;;23.38;63.42;98655.31;2087629;28;19925;-47
2023/06/01 00:55:28;;;;;;;;;;;;;;;23.38;63.27;98652.63;2086895;28;19927;-46
2023/06/01 00:56:31;;;;;;;;;;;;;;;23.38;63.55;98652.63;2084833;28;20432;-49
2023/06/01 00:57:32;;;;;;;;;;;;;;;23.38;64.48;98652.63;2084882;28;19969;-49
2023/06/01 00:58:34;;;;;;;;;;;;;;;23.38;63.75;98658.03;2088969;28;19971;-48
2023/06/01 00:59:34;;;;;;;;;;;;;;;23.37;63.57;98650.97;2090405;28;20049;-48
2023/06/01 01:00:37;;;;;;;;;;;;;;;23.38;63.19;98655.31;2089387;28;19932;-50
2023/06/01 01:01:37;;;;;;;;;;;;;;;23.38;63.55;98659.91;2089136;28;20517;-52
2023/06/01 01:02:41;;;;;;;;;;;;;;;23.38;63.30;98660.72;2086393;28;19983;-48
2023/06/01 01:03:44;;;;;;;;;;;;;;;23.37;63.67;98656.41;2090533;28;19952;-51
2023/06/01 01:04:52;;;;;;;;;;;;;;;23.37;63.38;98653.69;2085436;28;19931;-50
2023/06/01 01:05:57;;;;;;;;;;;;;;;23.37;63.32;98655.53;2088872;28;20416;-45
2023/06/01 01:07:03;;;;;;;;;;;;;;;23.37;63.58;98656.41;2088716;28;19998;-49
2023/06/01 01:08:07;;;;;;;;;;;;;;;23.38;63.48;98659.91;2086089;28;19924;-51
2023/06/01 01:09:15;;;;;;;;;;;;;;;23.37;63.33;98659.09;2089123;28;20054;-50
2023/06/01 01:10:19;;;;;;;;;;;;;;;23.38;63.76;98651.78;2088157;28;19965;-48
2023/06/01 01:11:24;;;;;;;;;;;;;;;23.39;63.28;98664.25;2087613;28;19920;-49
2023/06/01 01:12:31;;;;;;;;;;;;;;;23.37;63.29;98659.09;2091743;28;19923;-47
2023/06/01 01:13:36;;;;;;;;;;;;;;;23.38;63.31;98651.78;2088909;28;20626;-46
2023/06/01 01:14:39;;;;;;;;;;;;;;;23.36;63.93;98660.13;2087417;28;20529;-49
2023/06/01 01:15:44;;;;;;;;;;;;;;;23.37;63.45;98656.41;2089916;28;19921;-50
2023/06/01 01:16:46;;;;;;;;;;;;;;;23.37;63.62;98661.81;2089514;28;19955;-51
2023/06/01 01:17:51;;;;;;;;;;;;;;;23.37;63.56;98663.66;2087331;28;19948;-50
2023/06/01 01:18:54;;;;;;;;;;;;;;;23.36;63.45;98656.63;2088202;28;20009;-49
2023/06/01 01:20:00;;;;;;;;;;;;;;;23.36;63.32;98662.84;2088279;28;19924;-48
2023/06/01 01:21:01;;;;;;;;;;;;;;;23.38;63.71;98659.91;2087317;28;20051;-53
2023/06/01 01:22:08;;;;;;;;;;;;;;;23.38;63.44;98662.63;2088943;28;19929;-49
2023/06/01 01:23:20;;;;;;;;;;;;;;;23.37;63.49;98664.50;2089310;28;19925;-48
2023/06/01 01:24:32;;;;;;;;;;;;;;;23.38;63.44;98659.91;2087397;28;19978;-49
2023/06/01 01:25:47;;;;;;;;;;;;;;;23.36;63.42;98665.56;2088090;28;19977;-49
2023/06/01 01:27:02;;;;;;;;;;;;;;;23.37;63.76;98664.50;2081354;28;19932;-47
2023/06/01 01:28:08;;;;;;;;;;;;;;;23.37;63.53;98667.22;2087885;28;19972;-50
2023/06/01 01:29:12;;;;;;;;;;;;;;;23.36;63.63;98665.56;2086701;28;19921;-51
2023/06/01 01:30:13;;;;;;;;;;;;;;;23.38;63.45;98670.75;2086136;28;19924;-51
2023/06/01 01:31:16;;;;;;;;;;;;;;;23.36;63.57;98665.56;2088697;28;19928;-49
2023/06/01 01:32:18;;;;;;;;;;;;;;;23.37;63.47;98663.66;2087600;28;19924;-47
2023/06/01 01:33:18;;;;;;;;;;;;;;;23.36;63.61;98665.56;2086956;28;20051;-50
2023/06/01 01:34:21;;;;;;;;;;;;;;;23.35;63.47;98663.91;2087323;28;19928;-50
2023/06/01 01:35:23;;;;;;;;;;;;;;;23.35;63.43;98660.38;2088771;28;20040;-50
2023/06/01 01:36:25;;;;;;;;;;;;;;;23.38;63.46;98666.16;2087169;28;19928;-50
2023/06/01 01:37:25;;;;;;;;;;;;;;;23.37;63.38;98667.22;2089748;28;19925;-49
2023/06/01 01:38:27;;;;;;;;;;;;;;;23.37;63.64;98672.63;2087915;28;19931;-47
2023/06/01 01:39:27;;;;;;;;;;;;;;;23.36;63.58;98665.56;2088512;28;20016;-49
2023/06/01 01:40:29;;;;;;;;;;;;;;;23.36;63.69;98670.16;2090492;28;20359;-49
2023/06/01 01:41:30;;;;;;;;;;;;;;;23.37;63.28;98669.06;2090127;28;19929;-49
2023/06/01 01:42:31;;;;;;;;;;;;;;;23.35;63.63;98668.50;2086000;28;19928;-52
2023/06/01 01:43:32;;;;;;;;;;;;;;;23.37;63.46;98672.63;2089058;28;19920;-47
2023/06/01 01:44:35;;;;;;;;;;;;;;;23.36;64.16;98665.56;2087568;28;20439;-49
2023/06/01 01:45:36;;;;;;;;;;;;;;;23.35;63.40;98666.63;2088707;28;19956;-49
2023/06/01 01:46:42;;;;;;;;;;;;;;;23.35;63.58;98661.22;2087117;28;19920;-51
2023/06/01 01:47:48;;;;;;;;;;;;;;;23.36;64.60;98668.25;2087745;28;19959;-46
2023/06/01 01:48:52;;;;;;;;;;;;;;;23.35;63.92;98673.91;2087777;28;19931;-48
2023/06/01 01:49:55;;;;;;;;;;;;;;;23.35;63.99;98663.91;2088697;28;19952;-51
2023/06/01 01:50:59;;;;;;;;;;;;;;;23.35;65.48;98669.31;2085287;28;19932;-51
2023/06/01 01:52:06;;;;;;;;;;;;;;;23.34;63.84;98670.38;2084959;28;19936;-50
2023/06/01 01:53:09;;;;;;;;;;;;;;;23.35;63.83;98671.22;2086983;28;19920;-46
2023/06/01 01:54:10;;;;;;;;;;;;;;;23.34;63.93;98672.25;2085555;28;21488;-52
2023/06/01 01:55:12;;;;;;;;;;;;;;;23.36;63.93;98676.38;2087176;28;19936;-49
2023/06/01 01:56:13;;;;;;;;;;;;;;;23.36;63.80;98673.66;2085222;28;19973;-50
2023/06/01 01:57:14;;;;;;;;;;;;;;;23.36;64.11;98675.56;2081779;28;20725;-47
2023/06/01 01:58:15;;;;;;;;;;;;;;;23.35;63.73;98669.31;2086529;28;20049;-50
2023/06/01 01:59:18;;;;;;;;;;;;;;;23.35;63.67;98668.50;2085454;28;20007;-50
2023/06/01 02:00:20;;;;;;;;;;;;;;;23.34;63.88;98673.06;2087351;28;20328;-50
2023/06/01 02:01:21;;;;;;;;;;;;;;;23.35;63.91;98673.91;2084479;28;19925;-49
2023/06/01 02:02:22;;;;;;;;;;;;;;;23.34;64.11;98664.13;2084870;28;20007;-50
2023/06/01 02:03:23;;;;;;;;;;;;;;;23.34;63.83;98673.06;2086748;28;19936;-50
2023/06/01 02:04:24;;;;;;;;;;;;;;;23.35;63.77;98666.63;2088501;28;19963;-48
2023/06/01 02:05:26;;;;;;;;;;;;;;;23.35;64.07;98668.50;2087013;28;20667;-46
2023/06/01 02:06:26;;;;;;;;;;;;;;;23.36;63.85;98670.16;2088280;28;20019;-48
2023/06/01 02:07:27;;;;;;;;;;;;;;;23.35;63.86;98665.81;2089198;28;19939;-47
2023/06/01 02:08:28;;;;;;;;;;;;;;;23.35;63.82;98665.81;2089923;28;20019;-49
2023/06/01 02:09:30;;;;;;;;;;;;;;;23.35;64.03;98669.31;2086665;28;20774;-50
2023/06/01 02:10:30;;;;;;;;;;;;;;;23.36;64.09;98673.66;2083233;28;21111;-50
2023/06/01 02:11:31;;;;;;;;;;;;;;;23.36;63.82;98676.38;2086631;28;19960;-45
2023/06/01 02:12:32;;;;;;;;;;;;;;;23.35;64.13;98674.75;2086939;28;19955;-49
2023/06/01 02:13:34;;;;;;;;;;;;;;;23.35;63.95;98680.16;2084988;28;19929;-47
2023/06/01 02:14:34;;;;;;;;;;;;;;;23.35;63.86;98672.03;2085409;28;19924;-49
2023/06/01 02:15:37;;;;;;;;;;;;;;;23.34;64.44;98678.47;2086627;28;19974;-52
2023/06/01 02:16:37;;;;;;;;;;;;;;;23.35;64.12;98671.22;2086463;28;21043;-50
2023/06/01 02:17:40;;;;;;;;;;;;;;;23.35;63.99;98663.91;2085857;28;19928;-51
2023/06/01 02:18:41;;;;;;;;;;;;;;;23.35;63.87;98663.09;2088303;28;19967;-46
2023/06/01 02:19:43;;;;;;;;;;;;;;;23.34;64.25;98675.78;2084567;28;19963;-49
2023/06/01 02:20:43;;;;;;;;;;;;;;;23.34;64.25;98664.94;2085650;28;20015;-50
2023/06/01 02:21:45;;;;;;;;;;;;;;;23.34;64.30;98664.13;2082677;28;19955;-48
2023/06/01 02:22:45;;;;;;;;;;;;;;;23.34;64.60;98667.66;2087178;28;19920;-49
2023/06/01 02:23:47;;;;;;;;;;;;;;;23.34;64.09;98666.84;2086131;28;19921;-49
2023/06/01 02:24:47;;;;;;;;;;;;;;;23.33;64.16;98666.03;2086068;28;19927;-50
2023/06/01 02:25:49;;;;;;;;;;;;;;;23.33;64.18;98668.72;2087803;28;20403;-48
2023/06/01 02:26:52;;;;;;;;;;;;;;;23.33;64.28;98667.91;2086647;28;19964;-48
2023/06/01 02:27:53;;;;;;;;;;;;;;;23.32;64.33;98664.38;2085722;28;20565;-48
2023/06/01 02:28:53;;;;;;;;;;;;;;;23.32;64.46;98661.69;2088436;28;19955;-49
2023/06/01 02:29:55;;;;;;;;;;;;;;;23.33;64.45;98663.31;2088408;28;19927;-47
2023/06/01 02:30:57;;;;;;;;;;;;;;;23.33;64.41;98666.03;2087111;28;20478;-50
2023/06/01 02:31:59;;;;;;;;;;;;;;;23.31;64.65;98662.72;2086666;28;21833;-51
2023/06/01 02:32:59;;;;;;;;;;;;;;;23.32;64.78;98658.97;2085564;28;19928;-49
2023/06/01 02:34:01;;;;;;;;;;;;;;;23.33;64.41;98667.91;2085668;28;19934;-49
2023/06/01 02:35:01;;;;;;;;;;;;;;;23.33;64.59;98662.50;2088452;28;19928;-47
2023/06/01 02:36:03;;;;;;;;;;;;;;;23.32;64.19;98663.56;2086082;28;19977;-46
2023/06/01 02:37:04;;;;;;;;;;;;;;;23.31;64.55;98662.72;2088335;28;20000;-46
2023/06/01 02:38:06;;;;;;;;;;;;;;;23.30;64.90;98661.09;2087060;28;20556;-46
2023/06/01 02:39:06;;;;;;;;;;;;;;;23.32;64.45;98658.16;2085730;28;19924;-47
2023/06/01 02:40:11;;;;;;;;;;;;;;;23.31;64.65;98662.72;2084805;28;20424;-46
2023/06/01 02:41:11;;;;;;;;;;;;;;;23.32;64.30;98669.78;2086278;28;20401;-49
2023/06/01 02:42:13;;;;;;;;;;;;;;;23.32;64.67;98663.56;2086098;28;20014;-49
2023/06/01 02:43:13;;;;;;;;;;;;;;;23.31;65.37;98661.91;2085421;28;19935;-48
2023/06/01 02:44:15;;;;;;;;;;;;;;;23.30;64.41;98660.25;2084996;28;19939;-46
2023/06/01 02:45:16;;;;;;;;;;;;;;;23.31;64.18;98661.91;2089131;28;19928;-49
2023/06/01 02:46:19;;;;;;;;;;;;;;;23.31;64.34;98668.13;2087483;28;20406;-48
2023/06/01 02:47:19;;;;;;;;;;;;;;;23.31;64.33;98661.91;2083652;28;19990;-48
2023/06/01 02:48:21;;;;;;;;;;;;;;;23.32;64.32;98664.38;2085697;28;19920;-50
2023/06/01 02:49:21;;;;;;;;;;;;;;;23.30;64.34;98662.97;2088662;28;19999;-50
2023/06/01 02:50:23;;;;;;;;;;;;;;;23.30;64.43;98665.66;2086264;28;19931;-49
2023/06/01 02:51:23;;;;;;;;;;;;;;;23.30;64.84;98661.09;2084667;28;20050;-50
2023/06/01 02:52:25;;;;;;;;;;;;;;;23.30;64.48;98661.09;2088576;28;19928;-49
2023/06/01 02:53:27;;;;;;;;;;;;;;;23.30;64.67;98666.50;2085449;28;19932;-49
2023/06/01 02:54:28;;;;;;;;;;;;;;;23.30;64.27;98655.66;2086253;28;19924;-47
2023/06/01 02:55:29;;;;;;;;;;;;;;;23.31;64.62;98665.41;2090256;28;20015;-46
2023/06/01 02:56:30;;;;;;;;;;;;;;;23.30;64.63;98665.66;2084554;28;19925;-50
2023/06/01 02:57:30;;;;;;;;;;;;;;;23.30;64.31;98660.25;2086783;28;20028;-49
2023/06/01 02:58:32;;;;;;;;;;;;;;;23.29;64.44;98656.72;2087552;28;19955;-49
2023/06/01 02:59:32;;;;;;;;;;;;;;;23.31;65.00;98657.31;2087251;28;19925;-49
2023/06/01 03:00:34;;;;;;;;;;;;;;;23.29;64.57;98653.19;2087580;28;19974;-49
2023/06/01 03:01:36;;;;;;;;;;;;;;;23.28;64.50;98655.06;2087282;28;20003;-48
2023/06/01 03:02:37;;;;;;;;;;;;;;;23.30;64.61;98660.25;2087359;28;19931;-49
2023/06/01 03:03:38;;;;;;;;;;;;;;;23.30;64.73;98657.56;2089250;28;19924;-52
2023/06/01 03:04:39;;;;;;;;;;;;;;;23.29;65.57;98662.16;2087125;28;19994;-49
2023/06/01 03:05:42;;;;;;;;;;;;;;;23.29;64.59;98658.59;2088020;28;20009;-48
2023/06/01 03:06:45;;;;;;;;;;;;;;;23.28;64.74;98663.19;2086641;28;19920;-49
2023/06/01 03:07:45;;;;;;;;;;;;;;;23.28;64.55;98656.97;2088083;28;19927;-49
2023/06/01 03:08:47;;;;;;;;;;;;;;;23.28;64.79;98660.47;2089063;28;20022;-48
2023/06/01 03:09:47;;;;;;;;;;;;;;;23.29;64.40;98664.84;2089031;28;19924;-52
2023/06/01 03:10:49;;;;;;;;;;;;;;;23.29;64.62;98664.00;2088730;28;19924;-48
2023/06/01 03:11:50;;;;;;;;;;;;;;;23.27;65.10;98664.25;2086808;28;20720;-51
2023/06/01 03:12:51;;;;;;;;;;;;;;;23.28;65.32;98663.19;2088343;28;19920;-51
2023/06/01 03:13:52;;;;;;;;;;;;;;;23.28;64.90;98660.47;2087404;28;20632;-48
2023/06/01 03:14:53;;;;;;;;;;;;;;;23.28;64.60;98663.19;2085066;28;20002;-49
2023/06/01 03:15:54;;;;;;;;;;;;;;;23.28;64.85;98663.19;2086797;28;19981;-49
2023/06/01 03:16:57;;;;;;;;;;;;;;;23.27;64.87;98661.56;2088633;28;19920;-51
2023/06/01 03:17:57;;;;;;;;;;;;;;;23.26;64.87;98659.88;2086805;28;19994;-48
2023/06/01 03:18:59;;;;;;;;;;;;;;;23.27;64.84;98661.56;2089068;28;19935;-48
2023/06/01 03:20:00;;;;;;;;;;;;;;;23.26;64.56;98657.19;2086287;28;20562;-46
2023/06/01 03:21:02;;;;;;;;;;;;;;;23.28;64.91;98657.78;2088625;28;20382;-53
2023/06/01 03:22:02;;;;;;;;;;;;;;;23.24;64.95;98656.59;2086503;28;19924;-52
2023/06/01 03:23:04;;;;;;;;;;;;;;;23.26;64.93;98659.06;2085028;28;19932;-50
2023/06/01 03:24:04;;;;;;;;;;;;;;;23.26;65.05;98659.06;2085655;28;20031;-51
2023/06/01 03:25:07;;;;;;;;;;;;;;;23.26;65.05;98653.66;2091272;28;19925;-48
2023/06/01 03:26:08;;;;;;;;;;;;;;;23.27;64.88;98660.72;2086961;28;20798;-46
2023/06/01 03:27:10;;;;;;;;;;;;;;;23.26;64.79;98659.88;2085490;28;19974;-48
2023/06/01 03:28:11;;;;;;;;;;;;;;;23.26;65.01;98665.28;2086644;28;19928;-49
2023/06/01 03:29:12;;;;;;;;;;;;;;;23.26;64.59;98665.28;2087283;28;19928;-49
2023/06/01 03:30:13;;;;;;;;;;;;;;;23.26;65.28;98661.78;2086965;28;20060;-50
2023/06/01 03:31:15;;;;;;;;;;;;;;;23.26;64.96;98664.47;2087272;28;19987;-51
2023/06/01 03:32:17;;;;;;;;;;;;;;;23.25;64.79;98663.66;2087902;28;19924;-47
2023/06/01 03:33:18;;;;;;;;;;;;;;;23.25;64.65;98668.25;2088801;28;19978;-50
2023/06/01 03:34:20;;;;;;;;;;;;;;;23.23;64.77;98668.47;2085841;28;19920;-49
2023/06/01 03:35:22;;;;;;;;;;;;;;;23.25;64.72;98663.66;2090032;28;19929;-48
2023/06/01 03:36:23;;;;;;;;;;;;;;;23.27;65.03;98666.16;2086842;28;19956;-50
2023/06/01 03:37:24;;;;;;;;;;;;;;;23.24;64.98;98662.03;2087728;28;20015;-50
2023/06/01 03:38:25;;;;;;;;;;;;;;;23.25;64.93;98669.06;2086660;28;19958;-48
2023/06/01 03:39:25;;;;;;;;;;;;;;;23.24;64.81;98662.03;2087754;28;19924;-51
2023/06/01 03:40:27;;;;;;;;;;;;;;;23.25;64.90;98663.66;2088005;28;20374;-51
2023/06/01 03:41:27;;;;;;;;;;;;;;;23.26;65.13;98664.47;2086063;28;20038;-49
2023/06/01 03:42:29;;;;;;;;;;;;;;;23.23;64.58;98665.75;2084783;28;19927;-51
2023/06/01 03:43:29;;;;;;;;;;;;;;;23.24;64.75;98658.50;2085681;28;19965;-49
2023/06/01 03:44:31;;;;;;;;;;;;;;;23.24;64.93;98664.72;2087274;28;19993;-48
2023/06/01 03:45:31;;;;;;;;;;;;;;;23.24;64.96;98667.44;2085995;28;19955;-50
2023/06/01 03:46:33;;;;;;;;;;;;;;;23.23;64.84;98656.81;2086131;28;20405;-49
2023/06/01 03:47:35;;;;;;;;;;;;;;;23.24;64.70;98656.59;2087924;28;20586;-49
2023/06/01 03:48:36;;;;;;;;;;;;;;;23.24;64.77;98656.59;2086815;28;20563;-47
2023/06/01 03:49:37;;;;;;;;;;;;;;;23.24;64.56;98656.59;2087354;28;19932;-48
2023/06/01 03:50:38;;;;;;;;;;;;;;;23.24;64.82;98663.91;2087175;28;19925;-51
2023/06/01 03:51:39;;;;;;;;;;;;;;;23.25;64.66;98663.66;2085290;28;19968;-49
2023/06/01 03:52:41;;;;;;;;;;;;;;;23.23;64.76;98660.34;2085273;28;20376;-50
2023/06/01 03:53:41;;;;;;;;;;;;;;;23.23;64.84;98663.06;2086215;28;19928;-50
2023/06/01 03:54:43;;;;;;;;;;;;;;;23.24;64.46;98659.31;2088225;28;19921;-48
2023/06/01 03:55:43;;;;;;;;;;;;;;;23.23;64.81;98660.34;2089941;28;20270;-48
2023/06/01 03:56:45;;;;;;;;;;;;;;;23.24;64.83;98666.63;2086632;28;19966;-49
2023/06/01 03:57:46;;;;;;;;;;;;;;;23.23;64.97;98665.75;2089092;28;19920;-49
2023/06/01 03:58:47;;;;;;;;;;;;;;;23.25;64.82;98669.06;2087677;28;19920;-52
2023/06/01 03:59:47;;;;;;;;;;;;;;;23.23;64.81;98665.75;2088160;28;19967;-48
2023/06/01 04:00:49;;;;;;;;;;;;;;;23.22;64.66;98672.25;2088302;28;20643;-49
2023/06/01 04:01:51;;;;;;;;;;;;;;;23.23;64.81;98668.47;2091652;28;20613;-46
2023/06/01 04:02:55;;;;;;;;;;;;;;;23.23;65.17;98676.59;2088338;28;19920;-47
2023/06/01 04:03:56;;;;;;;;;;;;;;;23.21;65.26;98673.31;2089306;28;20492;-47
2023/06/01 04:04:57;;;;;;;;;;;;;;;23.22;64.89;98674.13;2088499;28;19932;-50
2023/06/01 04:05:59;;;;;;;;;;;;;;;23.21;64.82;98673.31;2091156;28;19925;-51
2023/06/01 04:07:00;;;;;;;;;;;;;;;23.22;64.60;98674.13;2090378;28;19924;-52
2023/06/01 04:08:01;;;;;;;;;;;;;;;23.22;64.82;98672.25;2090682;28;19970;-50
2023/06/01 04:09:06;;;;;;;;;;;;;;;23.23;65.04;98675.78;2088191;28;19995;-48
2023/06/01 04:10:07;;;;;;;;;;;;;;;23.23;64.93;98673.88;2088959;28;19924;-52
2023/06/01 04:11:08;;;;;;;;;;;;;;;23.21;64.84;98673.31;2089165;28;19940;-53
2023/06/01 04:12:10;;;;;;;;;;;;;;;23.22;64.67;98674.94;2089306;28;19920;-50
2023/06/01 04:13:12;;;;;;;;;;;;;;;23.21;64.83;98670.59;2089894;28;19974;-50
2023/06/01 04:14:12;;;;;;;;;;;;;;;23.23;64.54;98676.59;2087304;28;19951;-52
2023/06/01 04:15:14;;;;;;;;;;;;;;;23.23;64.79;98679.28;2076740;28;19931;-49
2023/06/01 04:16:15;;;;;;;;;;;;;;;23.23;64.67;98683.88;2082609;28;20027;-53
2023/06/01 04:17:16;;;;;;;;;;;;;;;23.22;65.47;98677.66;2086687;28;19921;-48
2023/06/01 04:18:18;;;;;;;;;;;;;;;23.22;64.68;98674.94;2088172;28;20542;-45
2023/06/01 04:19:20;;;;;;;;;;;;;;;23.22;64.82;98676.84;2086801;28;19928;-49
2023/06/01 04:20:20;;;;;;;;;;;;;;;23.23;64.64;98678.47;2087254;28;19935;-51
2023/06/01 04:21:22;;;;;;;;;;;;;;;23.22;64.42;98674.13;2088849;28;22466;-50
2023/06/01 04:22:22;;;;;;;;;;;;;;;23.22;64.76;98679.53;2088890;28;20386;-52
2023/06/01 04:23:24;;;;;;;;;;;;;;;23.22;64.87;98680.34;2089713;28;20290;-48
2023/06/01 04:24:25;;;;;;;;;;;;;;;23.21;64.71;98678.72;2085575;28;19924;-49
2023/06/01 04:25:28;;;;;;;;;;;;;;;23.22;64.50;98674.94;2088161;28;20331;-49
2023/06/01 04:26:31;;;;;;;;;;;;;;;23.22;64.53;98676.84;2086400;28;20319;-48
2023/06/01 04:27:36;;;;;;;;;;;;;;;23.21;64.86;98678.72;2082538;28;19930;-49
2023/06/01 04:28:43;;;;;;;;;;;;;;;23.22;64.81;98671.44;2085639;28;19935;-47
2023/06/01 04:29:48;;;;;;;;;;;;;;;23.23;64.57;98670.34;2086623;28;19927;-48
2023/06/01 04:30:51;;;;;;;;;;;;;;;23.23;64.96;98678.47;2088680;28;19960;-48
2023/06/01 04:31:54;;;;;;;;;;;;;;;23.22;64.81;98668.72;2089273;28;19927;-47
2023/06/01 04:32:55;;;;;;;;;;;;;;;23.23;64.92;98671.19;2087528;28;20552;-47
2023/06/01 04:34:01;;;;;;;;;;;;;;;23.22;64.80;98668.72;2087667;28;19948;-51
2023/06/01 04:35:04;;;;;;;;;;;;;;;23.21;64.70;98676.03;2085359;28;19924;-49
2023/06/01 04:36:06;;;;;;;;;;;;;;;23.22;64.98;98668.72;2083248;28;19939;-47
2023/06/01 04:37:07;;;;;;;;;;;;;;;23.22;64.61;98674.13;2081349;28;19942;-48
2023/06/01 04:38:08;;;;;;;;;;;;;;;23.22;64.81;98669.53;2085267;28;19921;-48
2023/06/01 04:39:09;;;;;;;;;;;;;;;23.26;65.13;98673.41;2086907;28;20461;-49
2023/06/01 04:40:12;;;;;;;;;;;;;;;23.25;64.48;98681.78;2086149;28;19925;-48
2023/06/01 04:41:12;;;;;;;;;;;;;;;23.23;64.54;98676.59;2081928;28;19924;-50
2023/06/01 04:42:14;;;;;;;;;;;;;;;23.21;64.62;98676.03;2085567;28;19968;-48
2023/06/01 04:43:18;;;;;;;;;;;;;;;23.23;64.57;98678.47;2086614;28;20736;-48
2023/06/01 04:44:21;;;;;;;;;;;;;;;23.24;64.65;98678.25;2087669;28;19960;-51
2023/06/01 04:45:23;;;;;;;;;;;;;;;23.23;64.66;98678.47;2079660;28;20646;-47
2023/06/01 04:46:26;;;;;;;;;;;;;;;23.22;64.77;98680.34;2087900;28;19963;-51
2023/06/01 04:47:28;;;;;;;;;;;;;;;23.20;64.66;98677.06;2082293;28;19929;-48
2023/06/01 04:48:31;;;;;;;;;;;;;;;23.21;64.59;98678.72;2087629;28;19936;-51
2023/06/01 04:49:34;;;;;;;;;;;;;;;23.20;64.80;98674.34;2085723;28;19972;-54
2023/06/01 04:50:37;;;;;;;;;;;;;;;23.21;64.69;98684.13;2085777;28;19924;-57
2023/06/01 04:51:37;;;;;;;;;;;;;;;23.30;64.33;98668.38;2083783;28;20747;-53
2023/06/01 04:52:39;;;;;;;;;;;;;;;23.28;64.19;98676.72;2082898;28;19936;-53
2023/06/01 04:53:40;;;;;;;;;;;;;;;23.28;64.23;98679.44;2082153;28;19963;-55
2023/06/01 04:54:42;;;;;;;;;;;;;;;23.26;63.76;98681.53;2084930;28;19924;-50
2023/06/01 04:55:44;;;;;;;;;;;;;;;23.24;64.06;98682.84;2079460;28;20521;-52
2023/06/01 04:56:45;;;;;;;;;;;;;;;23.22;64.14;98677.66;2084684;28;19928;-55
2023/06/01 04:57:46;;;;;;;;;;;;;;;23.23;64.39;98681.19;2083024;28;20191;-48
2023/06/01 04:58:48;;;;;;;;;;;;;;;23.21;64.34;98678.72;2088816;28;20022;-49
2023/06/01 04:59:50;;;;;;;;;;;;;;;23.20;64.34;98674.34;2085732;28;20721;-53
2023/06/01 05:00:52;;;;;;;;;;;;;;;23.20;64.11;98679.75;2085277;28;20031;-50
2023/06/01 05:01:52;;;;;;;;;;;;;;;23.20;64.17;98682.47;2086944;28;19924;-50
2023/06/01 05:02:54;;;;;;;;;;;;;;;23.19;64.30;98683.53;2085844;28;19974;-48
2023/06/01 05:03:55;;;;;;;;;;;;;;;23.17;64.25;98681.03;2087026;28;19920;-49
2023/06/01 05:04:58;;;;;;;;;;;;;;;23.18;64.41;98679.19;2085269;28;19924;-48
2023/06/01 05:05:59;;;;;;;;;;;;;;;23.18;64.16;98681.91;2090399;28;19924;-48
2023/06/01 05:07:00;;;;;;;;;;;;;;;23.15;64.27;98680.47;2088822;28;19974;-48
2023/06/01 05:08:01;;;;;;;;;;;;;;;23.15;64.11;98677.78;2090605;28;19920;-52
2023/06/01 05:09:04;;;;;;;;;;;;;;;23.14;64.35;98683.41;2087249;28;19921;-47
2023/06/01 05:10:06;;;;;;;;;;;;;;;23.15;64.36;98679.63;2088916;28;19955;-48
2023/06/01 05:11:08;;;;;;;;;;;;;;;23.14;64.21;98678.00;2088569;28;20652;-46
2023/06/01 05:12:09;;;;;;;;;;;;;;;23.15;64.13;98682.34;2087519;28;19991;-49
2023/06/01 05:13:10;;;;;;;;;;;;;;;23.14;64.27;98686.94;2089033;28;19927;-52
2023/06/01 05:14:11;;;;;;;;;;;;;;;23.14;64.17;98683.41;2090034;28;20003;-46
2023/06/01 05:15:13;;;;;;;;;;;;;;;23.15;63.98;98677.78;2091142;28;20496;-51
2023/06/01 05:16:13;;;;;;;;;;;;;;;23.14;64.04;98680.69;2087316;28;19924;-51
2023/06/01 05:17:15;;;;;;;;;;;;;;;23.14;64.16;98680.69;2084547;28;20022;-48
2023/06/01 05:18:15;;;;;;;;;;;;;;;23.12;63.85;98682.81;2082680;28;19959;-51
2023/06/01 05:19:17;;;;;;;;;;;;;;;23.13;63.75;98677.16;2080076;28;19928;-47
2023/06/01 05:20:19;;;;;;;;;;;;;;;23.15;64.02;98682.34;2080161;28;20052;-47
2023/06/01 05:21:20;;;;;;;;;;;;;;;23.15;63.41;98679.63;2084295;28;19920;-49
2023/06/01 05:22:21;;;;;;;;;;;;;;;23.16;63.63;98689.41;2086315;28;19928;-46